Aérodrome :
LOGIN :

S'inscrire | Disclaimer

   EN    FR    IT 

 










Légende :    VFR   VFR Marginal   IFR   IFR Intensif   IFR Très Intensif
Visi : 
Plafond : 
>= 8 km
>= 3000ft
5 à 8 km
1000 à 3000 ft
1500m à 5 km
500 à 1000 ft
800 à 1500m
200 à 500 ft
< 800m
< 200 ft
Symboles :   Orages  Brouillard  Fortes neiges  Fortes précipitations  Vent > 20 kt
SIGMETs :   Divers  Orages  Givrage  Turbulence  Onde Orograph.  Cendres Volcan.






- Altitude de l'aérodrome : 3 ft
- Code IATA : LWR


EHLW - Leuuwarden Air Base

DERNIER METAR :
  • 091855Z AUTO 18008KT 150V220 0500 FZFG OVC000 M00/M00 Q1006 RED

METARs EXPIRÉS :
  • 091825Z AUTO 19010KT 160V230 0450 FZFG OVC000 M00/M00 Q1006 RED
  • 091756Z AUTO 19008KT 160V220 0600 FZFG OVC000 M00/M00 Q1006 RED
  • 091748Z AUTO 21008KT 170V230 1300 BR OVC001 00/M00 Q1006 RED
  • 091725Z AUTO 20009KT 140V230 2500 BR BKN002 OVC003 00/M00 Q1005 AMB
  • 091717Z AUTO 19009KT 150V210 2500 BR OVC003 00/00 Q1005 YLO
  • 091703Z AUTO 19009KT 160V220 2600 BR OVC002 00/00 Q1005 AMB
  • 091655Z AUTO 19009KT 160V230 2400 BR OVC002 00/00 Q1005 AMB
  • 091633Z AUTO 19011KT 150V230 1800 BR OVC002 00/M00 Q1005 AMB
  • 091620Z AUTO 20008KT 170V230 2000 BR OVC002 00/M00 Q1005 AMB

TAF TAF EHLW
Valide du 09 à 18h jusqu'au 10 à 06h UTC


091721Z 0918/1006 19006KT 2500 BR BKN002
BECMG 0918/0920 0300 FZFG VV001



MET'MAP, la Météo Aéronautique d'un coup d'oeil ! - Copyright ORBIFLY Décembre 2007 - Disclaimer

ORBIFLY MET'MAP TEAM :

Programmation & Développement : Alexandra Zaïnal
Sur une idée originale de : Baudouin d'Aumeries
Soutien technique & logistique : Manuel Goepfert
Assistance : Marc-Olivier Méhu




SOURCES & CREDITS :

   NOAA